createdAt,value
2022-11-20T00:03:56.343Z,112.30
2022-11-20T00:14:03.726Z,105.90
2022-11-20T00:24:11.105Z,110.80
2022-11-20T00:34:17.397Z,105.10
2022-11-20T00:44:23.700Z,108.40
2022-11-20T00:54:30.330Z,104.30
2022-11-20T01:04:36.582Z,107.40
2022-11-20T01:14:42.860Z,113.20
2022-11-20T01:24:49.660Z,113.50
2022-11-20T01:34:55.981Z,107.90
2022-11-20T01:45:03.214Z,112.50
2022-11-20T01:55:12.130Z,116.10
2022-11-20T02:05:35.129Z,122.00
2022-11-20T02:15:42.295Z,123.40
2022-11-20T02:25:49.960Z,113.20
2022-11-20T02:35:56.268Z,110.90
2022-11-20T02:46:02.520Z,116.60
2022-11-20T02:56:09.414Z,109.80
2022-11-20T03:06:16.008Z,106.30
2022-11-20T03:16:23.788Z,101.80
2022-11-20T03:26:30.940Z,107.60
2022-11-20T03:36:40.051Z,107.80
2022-11-20T03:46:46.312Z,103.50
2022-11-20T03:56:52.816Z,102.00
2022-11-20T04:06:59.098Z,106.30
2022-11-20T04:17:05.938Z,99.50
2022-11-20T04:27:12.238Z,98.30
2022-11-20T04:37:18.551Z,104.80
2022-11-20T04:47:24.880Z,104.60
2022-11-20T04:57:31.134Z,102.60
2022-11-20T05:07:37.428Z,108.90
2022-11-20T05:17:43.697Z,104.20
2022-11-20T05:27:49.933Z,103.70
2022-11-20T05:37:56.178Z,104.90
2022-11-20T05:48:03.061Z,103.10
2022-11-20T05:58:09.296Z,97.60
2022-11-20T06:08:15.584Z,106.30
2022-11-20T06:18:22.281Z,109.40
2022-11-20T06:28:28.781Z,105.00
2022-11-20T06:38:35.066Z,116.30
2022-11-20T06:48:42.052Z,119.10
2022-11-20T06:58:48.319Z,113.60
2022-11-20T07:08:54.870Z,132.40
2022-11-20T07:19:01.262Z,130.30
2022-11-20T07:29:07.526Z,137.50
2022-11-20T07:39:13.798Z,126.60
2022-11-20T07:49:20.425Z,151.60
2022-11-20T07:59:26.904Z,134.00
2022-11-20T08:09:33.168Z,128.60
2022-11-20T08:19:39.450Z,128.80
2022-11-20T08:29:45.697Z,143.70
2022-11-20T08:39:51.974Z,146.50
2022-11-20T08:49:58.221Z,160.50
2022-11-20T09:00:07.448Z,163.10
2022-11-20T09:10:23.930Z,163.10
2022-11-20T09:20:32.350Z,154.40
2022-11-20T09:30:38.613Z,143.60
2022-11-20T09:40:53.918Z,134.10
2022-11-20T09:51:03.008Z,136.70
2022-11-20T10:01:16.491Z,141.10
2022-11-20T10:12:00.225Z,134.50
2022-11-20T10:22:34.614Z,134.00
2022-11-20T10:32:43.299Z,125.30
2022-11-20T10:42:54.446Z,139.10
2022-11-20T10:53:38.288Z,154.20
2022-11-20T11:03:47.740Z,156.80
2022-11-20T11:13:54.607Z,150.10
2022-11-20T11:24:34.818Z,132.40
2022-11-20T11:34:32.195Z,126.30
2022-11-20T11:44:57.031Z,124.70
2022-11-20T11:55:11.524Z,121.70
2022-11-20T12:05:28.244Z,121.60
2022-11-20T12:15:36.550Z,116.20
2022-11-20T12:25:46.399Z,106.20
2022-11-20T12:36:28.145Z,101.80
2022-11-20T12:46:44.409Z,94.30
2022-11-20T12:56:51.335Z,100.00
2022-11-20T13:06:59.452Z,81.30
2022-11-20T13:17:33.111Z,79.50
2022-11-20T13:27:49.571Z,82.10
2022-11-20T13:38:13.912Z,83.10
2022-11-20T13:48:26.504Z,84.80
2022-11-20T13:58:35.727Z,84.30
2022-11-20T14:08:45.387Z,81.00
2022-11-20T14:18:52.069Z,86.20
2022-11-20T14:28:58.813Z,88.70
2022-11-20T14:39:05.153Z,100.40
2022-11-20T14:49:12.588Z,124.00
2022-11-20T14:59:25.618Z,119.50
2022-11-20T15:09:31.864Z,128.80
2022-11-20T15:19:38.199Z,138.80
2022-11-20T15:29:44.648Z,137.40
2022-11-20T15:39:50.983Z,149.00
2022-11-20T15:49:57.271Z,147.40
2022-11-20T16:00:03.538Z,154.50
2022-11-20T16:10:10.236Z,136.90
2022-11-20T16:20:16.584Z,140.30
2022-11-20T16:30:22.867Z,131.10
2022-11-20T16:40:29.202Z,126.50
2022-11-20T16:50:35.437Z,134.00
2022-11-20T17:00:46.897Z,129.90
2022-11-20T17:10:56.867Z,134.00
2022-11-20T17:21:06.870Z,92.10
2022-11-20T17:31:18.548Z,66.70
2022-11-20T17:41:26.725Z,68.30
2022-11-20T17:51:35.776Z,66.60
2022-11-20T18:01:44.210Z,71.80
2022-11-20T18:11:50.607Z,64.20
2022-11-20T18:21:57.199Z,68.50
2022-11-20T18:32:03.467Z,68.10
2022-11-20T18:42:35.574Z,90.60
2022-11-20T18:52:45.456Z,83.20
2022-11-20T19:02:54.684Z,74.10
2022-11-20T19:13:00.976Z,68.90
2022-11-20T19:23:07.196Z,63.10
2022-11-20T19:33:13.474Z,74.20
2022-11-20T19:43:19.715Z,73.70
2022-11-20T19:53:26.148Z,75.20
2022-11-20T20:03:33.243Z,75.90
2022-11-20T20:13:39.913Z,71.50
2022-11-20T20:23:46.720Z,68.10
2022-11-20T20:33:53.069Z,60.10
2022-11-20T20:44:17.933Z,64.20
2022-11-20T20:54:24.159Z,72.50
2022-11-20T21:04:30.432Z,92.30
2022-11-20T21:14:36.734Z,84.60
2022-11-20T21:24:43.057Z,73.80
2022-11-20T21:34:49.289Z,75.70
2022-11-20T21:44:55.589Z,66.70
2022-11-20T21:55:01.849Z,65.60
2022-11-20T22:05:09.081Z,70.50
2022-11-20T22:15:27.985Z,63.30
2022-11-20T22:25:41.580Z,62.70
2022-11-20T22:35:47.809Z,64.50
2022-11-20T22:45:54.083Z,59.40
2022-11-20T22:56:01.331Z,63.20
2022-11-20T23:06:08.434Z,62.00
2022-11-20T23:16:16.963Z,64.70
2022-11-20T23:26:25.180Z,66.40
2022-11-20T23:36:31.792Z,76.90
2022-11-20T23:46:38.057Z,60.30
2022-11-20T23:56:44.922Z,65.10
